Dubbo Airport
YSDU : now visible

Airfield :











YOU CAN JOIN US ON...

 
LOGIN :

Register | Disclaimer

   EN    FR    IT 

 









Legend :    VFR   Marginal VFR   IFR   Intensive IFR   Very Intensive IFR
Visi :
Ceiling :
>= 8 km
>= 3000ft
5 to 8 km
1000 to 3000 ft
1500m to 5 km
500 to 1000 ft
800 to 1500m
200 to 500 ft
< 800m
< 200 ft
Symbols :   Thunderstorms  Fog  Heavy snow  Heavy precipitations  Wind > 20 kt






- Airport Elevation : 935 ft
- IATA code : DBO


YSDU - Dubbo

CURRENT METAR :
  • 272330Z AUTO 34014KT 9999 // NCD 32/17 Q1013 RF00.0/000.0

EXPIRED METARs :
  • 272300Z AUTO 34016KT 9999 // NCD 32/19 Q1013
  • 272230Z AUTO 35015KT 9999 // NCD 31/18 Q1013 RF00.0/000.0
  • 272200Z AUTO 34014KT 9999 // NCD 30/18 Q1013
  • 272130Z AUTO 36015KT 9999 // NCD 29/18 Q1013 RF00.0/000.0
  • 272100Z AUTO 36012KT 9999 // NCD 28/18 Q1013

TAF AMD TAF YSDU
Valid from the 28 at 00:00 until the 28 at 18:00 UTC


272304Z 2800/2818 34014KT CAVOK
BECMG 2800/2802 30014KT 9999 -SHRA SCT050
BECMG 2809/2811 22005KT CAVOK INTER 2801/2807 5000 SHRA BKN025



MET'MAP, your aeronautical weather chart ! - Copyright ORBIFLY December 2007 - Disclaimer

ORBIFLY MET'MAP TEAM :

Programming & Development : Alexandra Zaïnal
Concept & original design : Baudouin d'Aumeries
Assistance for programming : Marc-Olivier Méhu
Technical & hardware support : Manuel Goepfert

Contact : metmap@orbifly.com




SOURCES & CREDITS :

   NOAA       Earth
Advisory